sensor_id;sensor_type;location;lat;lon;timestamp;pressure;altitude;pressure_sealevel;temperature;humidity
79481;BME280;68944;48.262;14.208;2023-10-09T00:01:45;99112.34;;;11.09;100.00
79481;BME280;68944;48.262;14.208;2023-10-09T00:04:12;99114.38;;;11.07;100.00
79481;BME280;68944;48.262;14.208;2023-10-09T00:06:39;99098.88;;;11.04;100.00
79481;BME280;68944;48.262;14.208;2023-10-09T00:09:06;99086.44;;;11.11;100.00
79481;BME280;68944;48.262;14.208;2023-10-09T00:11:44;99088.47;;;11.02;100.00
79481;BME280;68944;48.262;14.208;2023-10-09T00:14:13;99089.69;;;11.07;100.00
79481;BME280;68944;48.262;14.208;2023-10-09T00:16:41;99090.50;;;11.07;100.00
79481;BME280;68944;48.262;14.208;2023-10-09T00:19:14;99085.41;;;11.06;100.00
79481;BME280;68944;48.262;14.208;2023-10-09T00:21:48;99074.22;;;11.03;100.00
79481;BME280;68944;48.262;14.208;2023-10-09T00:24:15;99066.44;;;11.09;100.00
79481;BME280;68944;48.262;14.208;2023-10-09T00:26:50;99064.00;;;11.00;100.00
79481;BME280;68944;48.262;14.208;2023-10-09T00:29:16;99056.03;;;11.00;100.00
79481;BME280;68944;48.262;14.208;2023-10-09T00:31:51;99064.59;;;11.09;100.00
79481;BME280;68944;48.262;14.208;2023-10-09T00:34:28;99066.03;;;11.05;100.00
79481;BME280;68944;48.262;14.208;2023-10-09T00:36:54;99065.59;;;11.01;100.00
79481;BME280;68944;48.262;14.208;2023-10-09T00:39:21;99057.88;;;11.00;100.00
79481;BME280;68944;48.262;14.208;2023-10-09T00:42:15;99054.00;;;11.02;100.00
79481;BME280;68944;48.262;14.208;2023-10-09T00:44:48;99050.94;;;10.99;100.00
79481;BME280;68944;48.262;14.208;2023-10-09T00:47:15;99051.13;;;10.97;100.00
79481;BME280;68944;48.262;14.208;2023-10-09T00:50:04;99041.13;;;10.99;100.00
79481;BME280;68944;48.262;14.208;2023-10-09T00:52:48;99043.78;;;10.99;100.00
79481;BME280;68944;48.262;14.208;2023-10-09T00:55:18;99046.25;;;10.94;100.00
79481;BME280;68944;48.262;14.208;2023-10-09T00:58:08;99040.13;;;11.00;100.00
79481;BME280;68944;48.262;14.208;2023-10-09T01:00:41;99039.09;;;11.01;100.00
79481;BME280;68944;48.262;14.208;2023-10-09T01:03:12;99037.66;;;10.92;100.00
79481;BME280;68944;48.262;14.208;2023-10-09T01:05:44;99042.56;;;10.95;100.00
79481;BME280;68944;48.262;14.208;2023-10-09T01:08:27;99038.50;;;10.86;100.00
79481;BME280;68944;48.262;14.208;2023-10-09T01:11:00;99034.84;;;10.80;100.00
79481;BME280;68944;48.262;14.208;2023-10-09T01:13:36;99037.06;;;10.90;100.00
79481;BME280;68944;48.262;14.208;2023-10-09T01:16:19;99026.28;;;10.91;100.00
79481;BME280;68944;48.262;14.208;2023-10-09T01:18:48;99024.84;;;10.96;100.00
79481;BME280;68944;48.262;14.208;2023-10-09T01:21:20;99026.66;;;10.88;100.00
79481;BME280;68944;48.262;14.208;2023-10-09T01:23:50;99026.66;;;10.95;100.00
79481;BME280;68944;48.262;14.208;2023-10-09T01:26:41;99018.50;;;10.97;100.00
79481;BME280;68944;48.262;14.208;2023-10-09T01:29:14;99021.75;;;10.92;100.00
79481;BME280;68944;48.262;14.208;2023-10-09T01:31:44;99021.78;;;10.99;100.00
79481;BME280;68944;48.262;14.208;2023-10-09T01:34:42;99012.41;;;10.96;100.00
79481;BME280;68944;48.262;14.208;2023-10-09T01:37:16;99008.13;;;10.81;100.00
79481;BME280;68944;48.262;14.208;2023-10-09T01:39:54;99010.75;;;10.81;100.00
79481;BME280;68944;48.262;14.208;2023-10-09T01:42:23;99008.34;;;10.80;100.00
79481;BME280;68944;48.262;14.208;2023-10-09T01:45:09;99001.38;;;10.72;100.00
79481;BME280;68944;48.262;14.208;2023-10-09T01:47:41;98991.81;;;10.78;100.00
79481;BME280;68944;48.262;14.208;2023-10-09T01:50:11;98992.44;;;10.66;100.00
79481;BME280;68944;48.262;14.208;2023-10-09T01:52:45;98986.31;;;10.66;100.00
79481;BME280;68944;48.262;14.208;2023-10-09T01:55:11;98983.84;;;10.64;100.00
79481;BME280;68944;48.262;14.208;2023-10-09T01:58:01;98992.81;;;10.70;100.00
79481;BME280;68944;48.262;14.208;2023-10-09T02:00:47;98982.63;;;10.53;100.00
79481;BME280;68944;48.262;14.208;2023-10-09T02:03:23;98992.97;;;10.48;100.00
79481;BME280;68944;48.262;14.208;2023-10-09T02:05:51;98988.50;;;10.42;100.00
79481;BME280;68944;48.262;14.208;2023-10-09T02:08:19;98986.69;;;10.56;100.00
79481;BME280;68944;48.262;14.208;2023-10-09T02:10:52;98971.16;;;10.39;100.00
79481;BME280;68944;48.262;14.208;2023-10-09T02:13:22;98966.47;;;10.41;100.00
79481;BME280;68944;48.262;14.208;2023-10-09T02:15:57;98966.13;;;10.58;100.00
79481;BME280;68944;48.262;14.208;2023-10-09T02:18:55;98962.81;;;10.49;100.00
79481;BME280;68944;48.262;14.208;2023-10-09T02:21:24;98969.94;;;10.42;100.00
79481;BME280;68944;48.262;14.208;2023-10-09T02:24:03;98965.47;;;10.42;100.00
79481;BME280;68944;48.262;14.208;2023-10-09T02:26:31;98953.84;;;10.36;100.00
79481;BME280;68944;48.262;14.208;2023-10-09T02:29:31;98959.94;;;10.17;100.00
79481;BME280;68944;48.262;14.208;2023-10-09T02:32:00;98959.09;;;10.09;100.00
79481;BME280;68944;48.262;14.208;2023-10-09T02:34:38;98964.97;;;9.98;100.00
79481;BME280;68944;48.262;14.208;2023-10-09T02:37:04;98959.72;;;10.11;100.00
79481;BME280;68944;48.262;14.208;2023-10-09T02:39:39;98966.81;;;10.04;100.00
79481;BME280;68944;48.262;14.208;2023-10-09T02:42:13;98964.53;;;9.81;100.00
79481;BME280;68944;48.262;14.208;2023-10-09T02:44:39;98977.34;;;9.77;100.00
79481;BME280;68944;48.262;14.208;2023-10-09T02:47:06;98956.41;;;9.89;100.00
79481;BME280;68944;48.262;14.208;2023-10-09T02:49:37;98952.31;;;9.86;100.00
79481;BME280;68944;48.262;14.208;2023-10-09T02:52:06;98950.66;;;9.78;100.00
79481;BME280;68944;48.262;14.208;2023-10-09T02:54:36;98939.69;;;9.82;100.00
79481;BME280;68944;48.262;14.208;2023-10-09T02:57:06;98943.13;;;9.75;100.00
79481;BME280;68944;48.262;14.208;2023-10-09T02:59:40;98930.19;;;10.01;100.00
79481;BME280;68944;48.262;14.208;2023-10-09T03:02:10;98930.94;;;9.81;100.00
79481;BME280;68944;48.262;14.208;2023-10-09T03:04:36;98942.28;;;9.61;100.00
79481;BME280;68944;48.262;14.208;2023-10-09T03:07:04;98923.19;;;9.73;100.00
79481;BME280;68944;48.262;14.208;2023-10-09T03:09:31;98925.50;;;10.10;100.00
79481;BME280;68944;48.262;14.208;2023-10-09T03:11:59;98929.34;;;9.94;100.00
79481;BME280;68944;48.262;14.208;2023-10-09T03:14:34;98928.69;;;9.78;100.00
79481;BME280;68944;48.262;14.208;2023-10-09T03:17:01;98917.31;;;9.91;100.00
79481;BME280;68944;48.262;14.208;2023-10-09T03:19:28;98906.72;;;9.91;100.00
79481;BME280;68944;48.262;14.208;2023-10-09T03:21:54;98907.72;;;9.83;100.00
79481;BME280;68944;48.262;14.208;2023-10-09T03:24:25;98908.13;;;9.80;100.00
79481;BME280;68944;48.262;14.208;2023-10-09T03:26:52;98901.84;;;9.95;100.00
79481;BME280;68944;48.262;14.208;2023-10-09T03:29:21;98904.50;;;9.95;100.00
79481;BME280;68944;48.262;14.208;2023-10-09T03:31:47;98906.94;;;9.83;100.00
79481;BME280;68944;48.262;14.208;2023-10-09T03:34:16;98901.88;;;10.01;100.00
79481;BME280;68944;48.262;14.208;2023-10-09T03:36:42;98901.22;;;9.86;100.00
79481;BME280;68944;48.262;14.208;2023-10-09T03:39:09;98899.19;;;9.95;100.00
79481;BME280;68944;48.262;14.208;2023-10-09T03:41:58;98896.38;;;9.96;100.00
79481;BME280;68944;48.262;14.208;2023-10-09T03:44:24;98887.59;;;9.96;100.00
79481;BME280;68944;48.262;14.208;2023-10-09T03:46:54;98888.84;;;10.13;100.00
79481;BME280;68944;48.262;14.208;2023-10-09T03:49:19;98879.69;;;10.09;100.00
79481;BME280;68944;48.262;14.208;2023-10-09T03:51:50;98875.81;;;10.05;100.00
79481;BME280;68944;48.262;14.208;2023-10-09T03:54:15;98870.91;;;10.09;100.00
79481;BME280;68944;48.262;14.208;2023-10-09T03:56:43;98871.31;;;9.99;100.00
79481;BME280;68944;48.262;14.208;2023-10-09T03:59:08;98867.66;;;10.00;100.00
79481;BME280;68944;48.262;14.208;2023-10-09T04:01:36;98852.38;;;10.16;100.00
79481;BME280;68944;48.262;14.208;2023-10-09T04:04:05;98860.53;;;10.07;100.00
79481;BME280;68944;48.262;14.208;2023-10-09T04:06:36;98860.13;;;9.97;100.00
79481;BME280;68944;48.262;14.208;2023-10-09T04:09:05;98848.72;;;10.17;100.00
79481;BME280;68944;48.262;14.208;2023-10-09T04:11:44;98861.97;;;10.03;100.00
79481;BME280;68944;48.262;14.208;2023-10-09T04:14:15;98862.13;;;9.81;100.00
79481;BME280;68944;48.262;14.208;2023-10-09T04:16:56;98853.63;;;10.13;100.00
79481;BME280;68944;48.262;14.208;2023-10-09T04:19:32;98849.72;;;10.02;100.00
79481;BME280;68944;48.262;14.208;2023-10-09T04:22:14;98854.22;;;10.08;100.00
79481;BME280;68944;48.262;14.208;2023-10-09T04:24:51;98847.28;;;10.07;100.00
79481;BME280;68944;48.262;14.208;2023-10-09T04:27:17;98841.59;;;10.10;100.00
79481;BME280;68944;48.262;14.208;2023-10-09T04:29:43;98841.00;;;10.22;100.00
79481;BME280;68944;48.262;14.208;2023-10-09T04:32:12;98835.88;;;10.13;100.00
79481;BME280;68944;48.262;14.208;2023-10-09T04:34:41;98829.59;;;10.01;100.00
79481;BME280;68944;48.262;14.208;2023-10-09T04:37:14;98831.00;;;10.04;100.00
79481;BME280;68944;48.262;14.208;2023-10-09T04:39:43;98830.19;;;10.17;100.00
79481;BME280;68944;48.262;14.208;2023-10-09T04:42:12;98822.03;;;10.11;100.00
79481;BME280;68944;48.262;14.208;2023-10-09T04:44:50;98825.28;;;10.00;100.00
79481;BME280;68944;48.262;14.208;2023-10-09T04:47:39;98820.44;;;9.97;100.00
79481;BME280;68944;48.262;14.208;2023-10-09T04:50:15;98811.84;;;9.95;100.00
79481;BME280;68944;48.262;14.208;2023-10-09T04:52:43;98815.53;;;10.07;100.00
79481;BME280;68944;48.262;14.208;2023-10-09T04:55:09;98812.06;;;9.86;100.00
79481;BME280;68944;48.262;14.208;2023-10-09T05:00:06;98814.09;;;9.91;100.00
79481;BME280;68944;48.262;14.208;2023-10-09T05:02:51;98820.00;;;9.93;100.00
79481;BME280;68944;48.262;14.208;2023-10-09T05:05:25;98799.25;;;10.04;100.00
79481;BME280;68944;48.262;14.208;2023-10-09T05:08:03;98820.81;;;9.80;100.00
79481;BME280;68944;48.262;14.208;2023-10-09T05:10:48;98815.31;;;9.88;100.00
79481;BME280;68944;48.262;14.208;2023-10-09T05:13:27;98810.22;;;9.80;100.00
79481;BME280;68944;48.262;14.208;2023-10-09T05:18:58;98812.06;;;9.79;100.00
79481;BME280;68944;48.262;14.208;2023-10-09T05:21:35;98813.28;;;10.18;100.00
79481;BME280;68944;48.262;14.208;2023-10-09T05:24:03;98813.09;;;10.06;100.00
79481;BME280;68944;48.262;14.208;2023-10-09T05:26:46;98815.09;;;9.90;100.00
79481;BME280;68944;48.262;14.208;2023-10-09T05:32:04;98811.25;;;10.06;100.00
79481;BME280;68944;48.262;14.208;2023-10-09T05:34:53;98806.13;;;10.25;100.00
79481;BME280;68944;48.262;14.208;2023-10-09T05:37:29;98796.78;;;10.22;100.00
79481;BME280;68944;48.262;14.208;2023-10-09T05:39:59;98793.50;;;10.41;100.00
79481;BME280;68944;48.262;14.208;2023-10-09T05:42:32;98791.88;;;10.40;100.00
79481;BME280;68944;48.262;14.208;2023-10-09T05:45:14;98789.84;;;10.21;100.00
79481;BME280;68944;48.262;14.208;2023-10-09T05:47:43;98800.03;;;10.11;100.00
79481;BME280;68944;48.262;14.208;2023-10-09T05:50:30;98799.44;;;10.09;100.00
79481;BME280;68944;48.262;14.208;2023-10-09T05:52:58;98775.59;;;10.16;100.00
79481;BME280;68944;48.262;14.208;2023-10-09T05:55:27;98802.09;;;9.88;100.00
79481;BME280;68944;48.262;14.208;2023-10-09T05:58:11;98794.34;;;10.07;100.00
79481;BME280;68944;48.262;14.208;2023-10-09T06:00:56;98780.88;;;10.16;100.00
79481;BME280;68944;48.262;14.208;2023-10-09T06:03:40;98796.78;;;10.02;100.00
79481;BME280;68944;48.262;14.208;2023-10-09T06:06:20;98797.56;;;10.36;100.00
79481;BME280;68944;48.262;14.208;2023-10-09T06:09:21;98796.75;;;10.56;100.00
79481;BME280;68944;48.262;14.208;2023-10-09T06:11:49;98789.63;;;10.57;100.00
79481;BME280;68944;48.262;14.208;2023-10-09T06:14:33;98786.56;;;10.53;100.00
79481;BME280;68944;48.262;14.208;2023-10-09T06:17:01;98806.34;;;10.37;100.00
79481;BME280;68944;48.262;14.208;2023-10-09T06:19:49;98804.09;;;10.41;100.00
79481;BME280;68944;48.262;14.208;2023-10-09T06:22:14;98795.94;;;10.35;100.00
79481;BME280;68944;48.262;14.208;2023-10-09T06:24:59;98798.56;;;10.49;100.00
79481;BME280;68944;48.262;14.208;2023-10-09T06:27:34;98793.09;;;10.51;100.00
79481;BME280;68944;48.262;14.208;2023-10-09T06:30:00;98793.91;;;10.51;100.00
79481;BME280;68944;48.262;14.208;2023-10-09T06:32:38;98793.06;;;10.71;100.00
79481;BME280;68944;48.262;14.208;2023-10-09T06:35:14;98794.22;;;10.89;100.00
79481;BME280;68944;48.262;14.208;2023-10-09T06:37:56;98789.25;;;10.99;100.00
79481;BME280;68944;48.262;14.208;2023-10-09T06:40:38;98784.84;;;10.86;100.00
79481;BME280;68944;48.262;14.208;2023-10-09T06:43:23;98787.22;;;11.01;100.00
79481;BME280;68944;48.262;14.208;2023-10-09T06:45:56;98786.81;;;11.04;100.00
79481;BME280;68944;48.262;14.208;2023-10-09T06:48:41;98799.81;;;11.13;100.00
79481;BME280;68944;48.262;14.208;2023-10-09T06:51:13;98800.97;;;11.31;100.00
79481;BME280;68944;48.262;14.208;2023-10-09T06:53:54;98799.41;;;11.16;100.00
79481;BME280;68944;48.262;14.208;2023-10-09T06:56:24;98809.19;;;11.15;100.00
79481;BME280;68944;48.262;14.208;2023-10-09T06:59:00;98795.28;;;11.20;100.00
79481;BME280;68944;48.262;14.208;2023-10-09T07:01:46;98799.25;;;11.43;100.00
79481;BME280;68944;48.262;14.208;2023-10-09T07:04:16;98797.19;;;11.52;100.00
79481;BME280;68944;48.262;14.208;2023-10-09T07:06:46;98789.66;;;11.75;100.00
79481;BME280;68944;48.262;14.208;2023-10-09T07:09:12;98790.97;;;11.65;100.00
79481;BME280;68944;48.262;14.208;2023-10-09T07:11:40;98797.56;;;11.56;100.00
79481;BME280;68944;48.262;14.208;2023-10-09T07:14:17;98799.97;;;11.57;100.00
79481;BME280;68944;48.262;14.208;2023-10-09T07:17:02;98796.00;;;11.41;100.00
79481;BME280;68944;48.262;14.208;2023-10-09T07:19:31;98786.59;;;11.06;100.00
79481;BME280;68944;48.262;14.208;2023-10-09T07:22:00;98796.41;;;11.45;100.00
79481;BME280;68944;48.262;14.208;2023-10-09T07:24:32;98788.53;;;11.31;100.00
79481;BME280;68944;48.262;14.208;2023-10-09T07:27:12;98788.38;;;11.19;100.00
79481;BME280;68944;48.262;14.208;2023-10-09T07:29:41;98790.69;;;11.41;100.00
79481;BME280;68944;48.262;14.208;2023-10-09T07:32:16;98791.03;;;11.84;100.00
79481;BME280;68944;48.262;14.208;2023-10-09T07:34:51;98787.16;;;12.12;100.00
79481;BME280;68944;48.262;14.208;2023-10-09T07:37:21;98789.34;;;11.90;100.00
79481;BME280;68944;48.262;14.208;2023-10-09T07:39:51;98792.56;;;11.66;100.00
79481;BME280;68944;48.262;14.208;2023-10-09T07:42:23;98794.75;;;11.76;100.00
79481;BME280;68944;48.262;14.208;2023-10-09T07:45:00;98802.66;;;11.83;100.00
79481;BME280;68944;48.262;14.208;2023-10-09T07:47:37;98811.69;;;11.82;100.00
79481;BME280;68944;48.262;14.208;2023-10-09T07:50:21;98800.72;;;11.97;100.00
79481;BME280;68944;48.262;14.208;2023-10-09T07:52:47;98805.97;;;11.78;100.00
79481;BME280;68944;48.262;14.208;2023-10-09T07:55:16;98796.75;;;11.81;100.00
79481;BME280;68944;48.262;14.208;2023-10-09T07:58:02;98790.84;;;11.79;100.00
79481;BME280;68944;48.262;14.208;2023-10-09T08:00:36;98778.81;;;12.02;100.00
79481;BME280;68944;48.262;14.208;2023-10-09T08:03:01;98789.19;;;11.85;100.00
79481;BME280;68944;48.262;14.208;2023-10-09T08:05:50;98777.53;;;12.11;100.00
79481;BME280;68944;48.262;14.208;2023-10-09T08:08:18;98774.50;;;12.08;100.00
79481;BME280;68944;48.262;14.208;2023-10-09T08:11:07;98771.53;;;12.42;100.00
79481;BME280;68944;48.262;14.208;2023-10-09T08:13:51;98780.38;;;12.16;100.00
79481;BME280;68944;48.262;14.208;2023-10-09T08:16:26;98779.22;;;12.05;100.00
79481;BME280;68944;48.262;14.208;2023-10-09T08:19:05;98784.50;;;12.12;100.00
79481;BME280;68944;48.262;14.208;2023-10-09T08:21:53;98792.72;;;12.48;100.00
79481;BME280;68944;48.262;14.208;2023-10-09T08:24:44;98804.13;;;12.56;100.00
79481;BME280;68944;48.262;14.208;2023-10-09T08:27:28;98796.50;;;12.78;100.00
79481;BME280;68944;48.262;14.208;2023-10-09T08:30:00;98793.50;;;13.05;100.00
79481;BME280;68944;48.262;14.208;2023-10-09T08:32:45;98779.59;;;13.22;100.00
79481;BME280;68944;48.262;14.208;2023-10-09T08:38:08;98777.56;;;13.05;100.00
79481;BME280;68944;48.262;14.208;2023-10-09T08:40:35;98778.06;;;13.14;100.00
79481;BME280;68944;48.262;14.208;2023-10-09T08:43:14;98788.13;;;13.12;100.00
79481;BME280;68944;48.262;14.208;2023-10-09T08:45:48;98785.53;;;13.05;100.00
79481;BME280;68944;48.262;14.208;2023-10-09T08:48:17;98782.53;;;13.33;100.00
79481;BME280;68944;48.262;14.208;2023-10-09T08:50:48;98780.59;;;13.40;100.00
79481;BME280;68944;48.262;14.208;2023-10-09T08:53:19;98793.06;;;13.58;100.00
79481;BME280;68944;48.262;14.208;2023-10-09T08:55:46;98782.44;;;13.82;100.00
79481;BME280;68944;48.262;14.208;2023-10-09T08:58:13;98783.97;;;13.90;100.00
79481;BME280;68944;48.262;14.208;2023-10-09T09:00:46;98794.97;;;13.51;100.00
79481;BME280;68944;48.262;14.208;2023-10-09T09:03:14;98795.03;;;13.63;100.00
79481;BME280;68944;48.262;14.208;2023-10-09T09:05:45;98802.44;;;13.61;100.00
79481;BME280;68944;48.262;14.208;2023-10-09T09:08:25;98799.78;;;13.73;100.00
79481;BME280;68944;48.262;14.208;2023-10-09T09:10:59;98789.41;;;13.83;100.00
79481;BME280;68944;48.262;14.208;2023-10-09T09:16:24;98790.69;;;14.29;100.00
79481;BME280;68944;48.262;14.208;2023-10-09T09:18:58;98784.66;;;14.45;100.00
79481;BME280;68944;48.262;14.208;2023-10-09T09:21:32;98793.22;;;14.48;100.00
79481;BME280;68944;48.262;14.208;2023-10-09T09:24:07;98793.16;;;14.30;100.00
79481;BME280;68944;48.262;14.208;2023-10-09T09:27:00;98798.44;;;14.42;100.00
79481;BME280;68944;48.262;14.208;2023-10-09T09:29:38;98792.19;;;14.37;100.00
79481;BME280;68944;48.262;14.208;2023-10-09T09:32:05;98791.59;;;14.59;100.00
79481;BME280;68944;48.262;14.208;2023-10-09T09:34:46;98781.47;;;14.85;100.00
79481;BME280;68944;48.262;14.208;2023-10-09T09:37:19;98786.53;;;14.98;100.00
79481;BME280;68944;48.262;14.208;2023-10-09T09:39:46;98784.31;;;15.07;100.00
79481;BME280;68944;48.262;14.208;2023-10-09T09:42:16;98780.97;;;15.00;100.00
79481;BME280;68944;48.262;14.208;2023-10-09T09:44:53;98789.69;;;15.24;100.00
79481;BME280;68944;48.262;14.208;2023-10-09T09:47:21;98799.81;;;15.40;100.00
79481;BME280;68944;48.262;14.208;2023-10-09T09:49:52;98792.84;;;15.68;100.00
79481;BME280;68944;48.262;14.208;2023-10-09T09:52:19;98794.22;;;15.53;100.00
79481;BME280;68944;48.262;14.208;2023-10-09T09:54:44;98791.28;;;15.55;100.00
79481;BME280;68944;48.262;14.208;2023-10-09T09:57:13;98788.78;;;15.65;100.00
79481;BME280;68944;48.262;14.208;2023-10-09T09:59:48;98791.47;;;15.83;100.00
79481;BME280;68944;48.262;14.208;2023-10-09T10:02:34;98787.03;;;15.71;100.00
79481;BME280;68944;48.262;14.208;2023-10-09T10:05:04;98784.84;;;15.85;100.00
79481;BME280;68944;48.262;14.208;2023-10-09T10:07:32;98799.97;;;15.97;100.00
79481;BME280;68944;48.262;14.208;2023-10-09T10:10:33;98793.25;;;16.11;100.00
79481;BME280;68944;48.262;14.208;2023-10-09T10:12:52;98798.41;;;16.35;100.00
79481;BME280;68944;48.262;14.208;2023-10-09T10:16:19;98786.91;;;16.35;100.00
79481;BME280;68944;48.262;14.208;2023-10-09T10:19:03;98791.22;;;16.36;100.00
79481;BME280;68944;48.262;14.208;2023-10-09T10:21:44;98780.28;;;16.60;100.00
79481;BME280;68944;48.262;14.208;2023-10-09T10:27:17;98796.44;;;17.38;100.00
79481;BME280;68944;48.262;14.208;2023-10-09T10:35:17;98785.38;;;18.33;100.00
79481;BME280;68944;48.262;14.208;2023-10-09T10:37:46;98780.31;;;18.37;100.00
79481;BME280;68944;48.262;14.208;2023-10-09T10:40:26;98784.75;;;18.64;100.00
79481;BME280;68944;48.262;14.208;2023-10-09T10:43:20;98769.75;;;18.19;100.00
79481;BME280;68944;48.262;14.208;2023-10-09T10:46:03;98775.13;;;18.19;100.00
79481;BME280;68944;48.262;14.208;2023-10-09T10:49:03;98774.47;;;18.50;100.00
79481;BME280;68944;48.262;14.208;2023-10-09T10:51:40;98769.72;;;18.68;100.00
79481;BME280;68944;48.262;14.208;2023-10-09T10:54:09;98769.53;;;19.01;100.00
79481;BME280;68944;48.262;14.208;2023-10-09T10:56:53;98758.75;;;18.75;100.00
79481;BME280;68944;48.262;14.208;2023-10-09T10:59:23;98766.63;;;19.08;100.00
79481;BME280;68944;48.262;14.208;2023-10-09T11:01:49;98768.47;;;19.02;100.00
79481;BME280;68944;48.262;14.208;2023-10-09T11:04:19;98763.91;;;18.97;100.00
79481;BME280;68944;48.262;14.208;2023-10-09T11:06:58;98753.16;;;18.87;100.00
79481;BME280;68944;48.262;14.208;2023-10-09T11:09:57;98756.38;;;18.94;100.00
79481;BME280;68944;48.262;14.208;2023-10-09T11:15:11;98762.81;;;18.93;100.00
79481;BME280;68944;48.262;14.208;2023-10-09T11:18:05;98760.69;;;18.95;100.00
79481;BME280;68944;48.262;14.208;2023-10-09T11:20:42;98752.06;;;18.88;100.00
79481;BME280;68944;48.262;14.208;2023-10-09T11:23:20;98759.31;;;18.82;100.00
79481;BME280;68944;48.262;14.208;2023-10-09T11:25:55;98754.22;;;18.86;100.00
79481;BME280;68944;48.262;14.208;2023-10-09T11:28:42;98766.56;;;18.82;100.00
79481;BME280;68944;48.262;14.208;2023-10-09T11:31:14;98756.31;;;18.68;100.00
79481;BME280;68944;48.262;14.208;2023-10-09T11:36:08;98755.25;;;18.74;100.00
79481;BME280;68944;48.262;14.208;2023-10-09T11:38:38;98745.06;;;18.76;100.00
79481;BME280;68944;48.262;14.208;2023-10-09T11:41:16;98744.00;;;18.78;100.00
79481;BME280;68944;48.262;14.208;2023-10-09T11:43:52;98743.72;;;18.79;100.00
79481;BME280;68944;48.262;14.208;2023-10-09T11:46:18;98764.38;;;18.79;100.00
79481;BME280;68944;48.262;14.208;2023-10-09T11:49:07;98774.56;;;18.76;100.00
79481;BME280;68944;48.262;14.208;2023-10-09T11:51:45;98753.94;;;18.82;100.00
79481;BME280;68944;48.262;14.208;2023-10-09T11:54:34;98757.47;;;18.93;100.00
79481;BME280;68944;48.262;14.208;2023-10-09T11:57:03;98758.75;;;18.85;100.00
79481;BME280;68944;48.262;14.208;2023-10-09T11:59:30;98760.66;;;18.90;100.00
79481;BME280;68944;48.262;14.208;2023-10-09T12:02:06;98752.06;;;18.88;100.00
79481;BME280;68944;48.262;14.208;2023-10-09T12:04:42;98763.38;;;18.95;100.00
79481;BME280;68944;48.262;14.208;2023-10-09T12:07:10;98767.91;;;18.95;100.00
79481;BME280;68944;48.262;14.208;2023-10-09T12:09:37;98755.56;;;18.88;100.00
79481;BME280;68944;48.262;14.208;2023-10-09T12:12:07;98743.72;;;18.79;100.00
79481;BME280;68944;48.262;14.208;2023-10-09T12:14:34;98756.84;;;18.70;100.00
79481;BME280;68944;48.262;14.208;2023-10-09T12:17:06;98753.03;;;18.56;100.00
79481;BME280;68944;48.262;14.208;2023-10-09T12:19:36;98765.34;;;18.51;100.00
79481;BME280;68944;48.262;14.208;2023-10-09T12:22:03;98761.59;;;18.47;100.00
79481;BME280;68944;48.262;14.208;2023-10-09T12:24:31;98755.34;;;18.36;100.00
79481;BME280;68944;48.262;14.208;2023-10-09T12:26:58;98755.31;;;18.26;100.00
79481;BME280;68944;48.262;14.208;2023-10-09T12:29:24;98754.97;;;18.17;100.00
79481;BME280;68944;48.262;14.208;2023-10-09T12:31:53;98729.19;;;18.11;100.00
79481;BME280;68944;48.262;14.208;2023-10-09T12:34:24;98758.88;;;17.99;100.00
79481;BME280;68944;48.262;14.208;2023-10-09T12:36:55;98739.25;;;17.93;100.00
79481;BME280;68944;48.262;14.208;2023-10-09T12:39:23;98700.06;;;17.81;100.00
79481;BME280;68944;48.262;14.208;2023-10-09T12:41:50;98748.81;;;17.78;100.00
79481;BME280;68944;48.262;14.208;2023-10-09T12:44:19;98721.47;;;17.76;100.00
79481;BME280;68944;48.262;14.208;2023-10-09T12:46:47;98764.09;;;17.78;100.00
79481;BME280;68944;48.262;14.208;2023-10-09T12:49:20;98724.72;;;17.78;100.00
79481;BME280;68944;48.262;14.208;2023-10-09T12:51:53;98746.69;;;17.80;100.00
79481;BME280;68944;48.262;14.208;2023-10-09T12:54:19;98745.94;;;17.85;100.00
79481;BME280;68944;48.262;14.208;2023-10-09T12:56:56;98696.84;;;17.79;100.00
79481;BME280;68944;48.262;14.208;2023-10-09T12:59:22;98710.22;;;17.79;100.00
79481;BME280;68944;48.262;14.208;2023-10-09T13:01:49;98686.63;;;17.76;100.00
79481;BME280;68944;48.262;14.208;2023-10-09T13:04:18;98700.25;;;17.69;100.00
79481;BME280;68944;48.262;14.208;2023-10-09T13:06:48;98714.16;;;17.66;100.00
79481;BME280;68944;48.262;14.208;2023-10-09T13:09:19;98714.94;;;17.61;100.00
79481;BME280;68944;48.262;14.208;2023-10-09T13:11:50;98688.63;;;17.53;100.00
79481;BME280;68944;48.262;14.208;2023-10-09T13:14:16;98727.75;;;17.54;100.00
79481;BME280;68944;48.262;14.208;2023-10-09T13:16:49;98769.72;;;17.48;100.00
79481;BME280;68944;48.262;14.208;2023-10-09T13:19:18;98780.56;;;17.31;100.00
79481;BME280;68944;48.262;14.208;2023-10-09T13:21:44;98761.41;;;17.17;100.00
79481;BME280;68944;48.262;14.208;2023-10-09T13:24:10;98762.16;;;17.12;100.00
79481;BME280;68944;48.262;14.208;2023-10-09T13:26:44;98784.03;;;17.04;100.00
79481;BME280;68944;48.262;14.208;2023-10-09T13:29:17;98755.00;;;16.95;100.00
79481;BME280;68944;48.262;14.208;2023-10-09T13:31:48;98738.88;;;16.90;100.00
79481;BME280;68944;48.262;14.208;2023-10-09T13:34:23;98716.94;;;16.88;100.00
79481;BME280;68944;48.262;14.208;2023-10-09T13:36:53;98691.47;;;16.86;100.00
79481;BME280;68944;48.262;14.208;2023-10-09T13:39:19;98673.81;;;16.85;100.00
79481;BME280;68944;48.262;14.208;2023-10-09T13:41:55;98657.44;;;16.81;100.00
79481;BME280;68944;48.262;14.208;2023-10-09T13:44:31;98654.53;;;16.82;100.00